sensor_id;sensor_type;location;lat;lon;timestamp;P1;durP1;ratioP1;P2;durP2;ratioP2
3407;SDS011;1717;50.240;8.406;2023-03-31T00:01:25;6.23;;;1.77;;
3407;SDS011;1717;50.240;8.406;2023-03-31T00:03:53;4.40;;;1.50;;
3407;SDS011;1717;50.240;8.406;2023-03-31T00:06:29;4.80;;;1.70;;
3407;SDS011;1717;50.240;8.406;2023-03-31T00:09:02;3.60;;;1.63;;
3407;SDS011;1717;50.240;8.406;2023-03-31T00:11:29;5.40;;;2.13;;
3407;SDS011;1717;50.240;8.406;2023-03-31T00:13:55;3.10;;;2.17;;
3407;SDS011;1717;50.240;8.406;2023-03-31T00:16:24;4.20;;;1.93;;
3407;SDS011;1717;50.240;8.406;2023-03-31T00:18:51;2.77;;;1.60;;
3407;SDS011;1717;50.240;8.406;2023-03-31T00:21:19;5.10;;;2.33;;
3407;SDS011;1717;50.240;8.406;2023-03-31T00:23:55;5.43;;;2.10;;
3407;SDS011;1717;50.240;8.406;2023-03-31T00:26:23;3.80;;;1.90;;
3407;SDS011;1717;50.240;8.406;2023-03-31T00:28:52;3.17;;;2.23;;
3407;SDS011;1717;50.240;8.406;2023-03-31T00:31:19;5.70;;;2.30;;
3407;SDS011;1717;50.240;8.406;2023-03-31T00:33:48;8.80;;;1.93;;
3407;SDS011;1717;50.240;8.406;2023-03-31T00:36:15;2.67;;;2.00;;
3407;SDS011;1717;50.240;8.406;2023-03-31T00:38:46;10.80;;;2.43;;
3407;SDS011;1717;50.240;8.406;2023-03-31T00:41:13;4.97;;;2.30;;
3407;SDS011;1717;50.240;8.406;2023-03-31T00:43:40;4.70;;;2.17;;
3407;SDS011;1717;50.240;8.406;2023-03-31T00:46:22;5.10;;;2.80;;
3407;SDS011;1717;50.240;8.406;2023-03-31T00:48:56;4.60;;;1.90;;
3407;SDS011;1717;50.240;8.406;2023-03-31T00:51:24;5.10;;;2.03;;
3407;SDS011;1717;50.240;8.406;2023-03-31T00:53:56;5.00;;;2.33;;
3407;SDS011;1717;50.240;8.406;2023-03-31T00:56:26;6.07;;;2.30;;
3407;SDS011;1717;50.240;8.406;2023-03-31T00:58:58;4.93;;;2.23;;
3407;SDS011;1717;50.240;8.406;2023-03-31T01:01:28;7.53;;;3.20;;
3407;SDS011;1717;50.240;8.406;2023-03-31T01:03:57;5.80;;;2.47;;
3407;SDS011;1717;50.240;8.406;2023-03-31T01:06:24;5.83;;;2.10;;
3407;SDS011;1717;50.240;8.406;2023-03-31T01:08:55;3.77;;;1.87;;
3407;SDS011;1717;50.240;8.406;2023-03-31T01:11:23;9.57;;;2.77;;
3407;SDS011;1717;50.240;8.406;2023-03-31T01:13:52;4.77;;;1.90;;
3407;SDS011;1717;50.240;8.406;2023-03-31T01:16:20;4.27;;;2.20;;
3407;SDS011;1717;50.240;8.406;2023-03-31T01:18:48;4.97;;;2.40;;
3407;SDS011;1717;50.240;8.406;2023-03-31T01:24:38;11.70;;;3.07;;
3407;SDS011;1717;50.240;8.406;2023-03-31T01:27:32;8.53;;;2.90;;
3407;SDS011;1717;50.240;8.406;2023-03-31T01:30:22;7.23;;;2.63;;
3407;SDS011;1717;50.240;8.406;2023-03-31T01:33:32;5.23;;;2.10;;
3407;SDS011;1717;50.240;8.406;2023-03-31T01:36:33;4.13;;;2.40;;
3407;SDS011;1717;50.240;8.406;2023-03-31T01:42:24;11.73;;;2.50;;
3407;SDS011;1717;50.240;8.406;2023-03-31T01:44:58;4.30;;;2.20;;
3407;SDS011;1717;50.240;8.406;2023-03-31T01:47:32;10.93;;;3.40;;
3407;SDS011;1717;50.240;8.406;2023-03-31T01:50:05;6.07;;;2.10;;
3407;SDS011;1717;50.240;8.406;2023-03-31T01:52:37;8.07;;;3.07;;
3407;SDS011;1717;50.240;8.406;2023-03-31T01:55:12;4.37;;;2.40;;
3407;SDS011;1717;50.240;8.406;2023-03-31T01:57:46;6.40;;;2.37;;
3407;SDS011;1717;50.240;8.406;2023-03-31T02:00:16;6.53;;;3.03;;
3407;SDS011;1717;50.240;8.406;2023-03-31T02:02:48;3.77;;;2.30;;
3407;SDS011;1717;50.240;8.406;2023-03-31T02:05:23;10.43;;;3.57;;
3407;SDS011;1717;50.240;8.406;2023-03-31T02:07:53;4.80;;;2.43;;
3407;SDS011;1717;50.240;8.406;2023-03-31T02:10:24;4.10;;;2.00;;
3407;SDS011;1717;50.240;8.406;2023-03-31T02:12:54;6.73;;;2.10;;
3407;SDS011;1717;50.240;8.406;2023-03-31T02:15:24;4.17;;;2.30;;
3407;SDS011;1717;50.240;8.406;2023-03-31T02:17:54;6.20;;;2.70;;
3407;SDS011;1717;50.240;8.406;2023-03-31T02:20:23;6.10;;;2.10;;
3407;SDS011;1717;50.240;8.406;2023-03-31T02:22:54;6.23;;;3.00;;
3407;SDS011;1717;50.240;8.406;2023-03-31T02:25:25;10.43;;;2.23;;
3407;SDS011;1717;50.240;8.406;2023-03-31T02:27:58;6.60;;;2.67;;
3407;SDS011;1717;50.240;8.406;2023-03-31T02:30:29;8.50;;;2.83;;
3407;SDS011;1717;50.240;8.406;2023-03-31T02:33:01;12.00;;;3.70;;
3407;SDS011;1717;50.240;8.406;2023-03-31T02:35:29;6.70;;;2.90;;
3407;SDS011;1717;50.240;8.406;2023-03-31T02:37:58;6.27;;;2.47;;
3407;SDS011;1717;50.240;8.406;2023-03-31T02:40:27;7.63;;;3.37;;
3407;SDS011;1717;50.240;8.406;2023-03-31T02:42:54;10.03;;;3.00;;
3407;SDS011;1717;50.240;8.406;2023-03-31T02:45:41;5.50;;;2.23;;
3407;SDS011;1717;50.240;8.406;2023-03-31T02:48:10;8.17;;;2.70;;
3407;SDS011;1717;50.240;8.406;2023-03-31T02:50:49;7.33;;;2.60;;
3407;SDS011;1717;50.240;8.406;2023-03-31T02:53:27;4.90;;;2.50;;
3407;SDS011;1717;50.240;8.406;2023-03-31T02:56:07;4.70;;;2.10;;
3407;SDS011;1717;50.240;8.406;2023-03-31T02:58:48;14.97;;;2.53;;
3407;SDS011;1717;50.240;8.406;2023-03-31T03:01:33;6.53;;;2.30;;
3407;SDS011;1717;50.240;8.406;2023-03-31T03:04:10;2.63;;;2.43;;
3407;SDS011;1717;50.240;8.406;2023-03-31T03:06:52;10.73;;;2.97;;
3407;SDS011;1717;50.240;8.406;2023-03-31T03:09:31;5.97;;;2.40;;
3407;SDS011;1717;50.240;8.406;2023-03-31T03:12:09;5.30;;;3.20;;
3407;SDS011;1717;50.240;8.406;2023-03-31T03:14:43;5.40;;;2.13;;
3407;SDS011;1717;50.240;8.406;2023-03-31T03:17:15;9.10;;;2.90;;
3407;SDS011;1717;50.240;8.406;2023-03-31T03:19:49;3.70;;;3.30;;
3407;SDS011;1717;50.240;8.406;2023-03-31T03:22:17;5.30;;;3.07;;
3407;SDS011;1717;50.240;8.406;2023-03-31T03:24:44;3.53;;;2.50;;
3407;SDS011;1717;50.240;8.406;2023-03-31T03:27:12;12.10;;;2.90;;
3407;SDS011;1717;50.240;8.406;2023-03-31T03:29:39;9.03;;;3.17;;
3407;SDS011;1717;50.240;8.406;2023-03-31T03:32:07;5.63;;;2.57;;
3407;SDS011;1717;50.240;8.406;2023-03-31T03:34:34;5.23;;;2.60;;
3407;SDS011;1717;50.240;8.406;2023-03-31T03:37:01;4.97;;;2.10;;
3407;SDS011;1717;50.240;8.406;2023-03-31T03:39:28;6.13;;;2.80;;
3407;SDS011;1717;50.240;8.406;2023-03-31T03:41:55;6.20;;;2.13;;
3407;SDS011;1717;50.240;8.406;2023-03-31T03:44:23;9.20;;;2.57;;
3407;SDS011;1717;50.240;8.406;2023-03-31T03:46:49;5.30;;;2.43;;
3407;SDS011;1717;50.240;8.406;2023-03-31T03:49:16;3.97;;;2.40;;
3407;SDS011;1717;50.240;8.406;2023-03-31T03:51:44;7.20;;;2.53;;
3407;SDS011;1717;50.240;8.406;2023-03-31T03:54:11;7.10;;;3.00;;
3407;SDS011;1717;50.240;8.406;2023-03-31T03:56:38;10.07;;;3.87;;
3407;SDS011;1717;50.240;8.406;2023-03-31T03:59:04;5.23;;;2.67;;
3407;SDS011;1717;50.240;8.406;2023-03-31T04:01:32;7.03;;;2.90;;
3407;SDS011;1717;50.240;8.406;2023-03-31T04:04:00;6.43;;;2.70;;
3407;SDS011;1717;50.240;8.406;2023-03-31T04:06:26;8.13;;;3.10;;
3407;SDS011;1717;50.240;8.406;2023-03-31T04:08:53;8.77;;;2.90;;
3407;SDS011;1717;50.240;8.406;2023-03-31T04:11:20;5.20;;;2.40;;
3407;SDS011;1717;50.240;8.406;2023-03-31T04:13:47;8.17;;;3.03;;
3407;SDS011;1717;50.240;8.406;2023-03-31T04:16:14;7.83;;;3.50;;
3407;SDS011;1717;50.240;8.406;2023-03-31T04:18:42;8.10;;;3.43;;
3407;SDS011;1717;50.240;8.406;2023-03-31T04:21:09;11.13;;;2.80;;
3407;SDS011;1717;50.240;8.406;2023-03-31T04:23:40;6.70;;;2.70;;
3407;SDS011;1717;50.240;8.406;2023-03-31T04:26:10;5.93;;;2.50;;
3407;SDS011;1717;50.240;8.406;2023-03-31T04:28:37;7.50;;;2.80;;
3407;SDS011;1717;50.240;8.406;2023-03-31T04:31:07;5.50;;;2.73;;
3407;SDS011;1717;50.240;8.406;2023-03-31T04:33:39;10.30;;;2.67;;
3407;SDS011;1717;50.240;8.406;2023-03-31T04:36:11;3.20;;;2.67;;
3407;SDS011;1717;50.240;8.406;2023-03-31T04:38:43;6.50;;;2.63;;
3407;SDS011;1717;50.240;8.406;2023-03-31T04:41:11;5.20;;;2.50;;
3407;SDS011;1717;50.240;8.406;2023-03-31T04:43:38;6.67;;;3.40;;
3407;SDS011;1717;50.240;8.406;2023-03-31T04:46:05;6.53;;;3.10;;
3407;SDS011;1717;50.240;8.406;2023-03-31T04:48:32;7.70;;;2.70;;
3407;SDS011;1717;50.240;8.406;2023-03-31T04:50:59;3.87;;;2.00;;
3407;SDS011;1717;50.240;8.406;2023-03-31T04:53:27;7.77;;;3.17;;
3407;SDS011;1717;50.240;8.406;2023-03-31T04:55:54;4.83;;;2.40;;
3407;SDS011;1717;50.240;8.406;2023-03-31T04:58:21;6.70;;;2.80;;
3407;SDS011;1717;50.240;8.406;2023-03-31T05:00:48;7.10;;;2.13;;
3407;SDS011;1717;50.240;8.406;2023-03-31T05:03:15;6.10;;;2.00;;
3407;SDS011;1717;50.240;8.406;2023-03-31T05:05:42;4.30;;;2.10;;
3407;SDS011;1717;50.240;8.406;2023-03-31T05:08:08;2.67;;;1.47;;
3407;SDS011;1717;50.240;8.406;2023-03-31T05:10:37;6.83;;;4.03;;
3407;SDS011;1717;50.240;8.406;2023-03-31T05:13:03;8.17;;;2.50;;
3407;SDS011;1717;50.240;8.406;2023-03-31T05:15:30;3.87;;;1.67;;
3407;SDS011;1717;50.240;8.406;2023-03-31T05:17:57;7.37;;;2.10;;
3407;SDS011;1717;50.240;8.406;2023-03-31T05:20:24;4.30;;;2.23;;
3407;SDS011;1717;50.240;8.406;2023-03-31T05:22:51;5.97;;;2.17;;
3407;SDS011;1717;50.240;8.406;2023-03-31T05:25:17;3.93;;;1.83;;
3407;SDS011;1717;50.240;8.406;2023-03-31T05:27:46;5.53;;;2.47;;
3407;SDS011;1717;50.240;8.406;2023-03-31T05:30:14;3.20;;;2.07;;
3407;SDS011;1717;50.240;8.406;2023-03-31T05:32:41;3.97;;;2.10;;
3407;SDS011;1717;50.240;8.406;2023-03-31T05:35:09;8.80;;;3.00;;
3407;SDS011;1717;50.240;8.406;2023-03-31T05:37:36;5.77;;;2.63;;
3407;SDS011;1717;50.240;8.406;2023-03-31T05:40:03;7.97;;;3.10;;
3407;SDS011;1717;50.240;8.406;2023-03-31T05:42:32;4.17;;;3.07;;
3407;SDS011;1717;50.240;8.406;2023-03-31T05:45:00;3.80;;;2.90;;
3407;SDS011;1717;50.240;8.406;2023-03-31T05:47:27;3.67;;;2.90;;
3407;SDS011;1717;50.240;8.406;2023-03-31T05:49:54;9.83;;;3.40;;
3407;SDS011;1717;50.240;8.406;2023-03-31T05:52:20;7.50;;;3.00;;
3407;SDS011;1717;50.240;8.406;2023-03-31T05:54:47;6.27;;;3.40;;
3407;SDS011;1717;50.240;8.406;2023-03-31T05:57:14;4.90;;;2.80;;
3407;SDS011;1717;50.240;8.406;2023-03-31T05:59:41;4.70;;;3.30;;
3407;SDS011;1717;50.240;8.406;2023-03-31T06:02:11;6.93;;;3.20;;
3407;SDS011;1717;50.240;8.406;2023-03-31T06:04:38;3.73;;;3.23;;
3407;SDS011;1717;50.240;8.406;2023-03-31T06:07:06;3.73;;;2.43;;
3407;SDS011;1717;50.240;8.406;2023-03-31T06:09:34;3.40;;;3.10;;
3407;SDS011;1717;50.240;8.406;2023-03-31T06:12:01;3.40;;;3.07;;
3407;SDS011;1717;50.240;8.406;2023-03-31T06:14:28;5.20;;;3.27;;
3407;SDS011;1717;50.240;8.406;2023-03-31T06:16:55;4.20;;;2.70;;
3407;SDS011;1717;50.240;8.406;2023-03-31T06:19:23;3.70;;;2.77;;
3407;SDS011;1717;50.240;8.406;2023-03-31T06:21:50;6.13;;;2.50;;
3407;SDS011;1717;50.240;8.406;2023-03-31T06:24:17;6.23;;;3.07;;
3407;SDS011;1717;50.240;8.406;2023-03-31T06:26:44;3.80;;;2.60;;
3407;SDS011;1717;50.240;8.406;2023-03-31T06:29:11;4.07;;;2.23;;
3407;SDS011;1717;50.240;8.406;2023-03-31T06:31:37;4.10;;;2.70;;
3407;SDS011;1717;50.240;8.406;2023-03-31T06:34:04;4.73;;;2.20;;
3407;SDS011;1717;50.240;8.406;2023-03-31T06:36:33;3.23;;;2.20;;
3407;SDS011;1717;50.240;8.406;2023-03-31T06:38:59;4.67;;;2.30;;
3407;SDS011;1717;50.240;8.406;2023-03-31T06:41:27;4.43;;;2.83;;
3407;SDS011;1717;50.240;8.406;2023-03-31T06:43:53;6.17;;;2.20;;
3407;SDS011;1717;50.240;8.406;2023-03-31T06:46:20;5.20;;;2.00;;
3407;SDS011;1717;50.240;8.406;2023-03-31T06:48:47;4.67;;;2.73;;
3407;SDS011;1717;50.240;8.406;2023-03-31T06:51:14;4.33;;;2.20;;
3407;SDS011;1717;50.240;8.406;2023-03-31T06:53:43;4.13;;;2.60;;
3407;SDS011;1717;50.240;8.406;2023-03-31T06:56:10;2.70;;;2.13;;
3407;SDS011;1717;50.240;8.406;2023-03-31T06:58:37;3.30;;;3.00;;
3407;SDS011;1717;50.240;8.406;2023-03-31T07:01:04;4.50;;;2.70;;
3407;SDS011;1717;50.240;8.406;2023-03-31T07:03:32;4.33;;;2.90;;
3407;SDS011;1717;50.240;8.406;2023-03-31T07:05:59;4.73;;;3.27;;
3407;SDS011;1717;50.240;8.406;2023-03-31T07:08:26;4.23;;;3.57;;
3407;SDS011;1717;50.240;8.406;2023-03-31T07:10:55;5.53;;;4.27;;
3407;SDS011;1717;50.240;8.406;2023-03-31T07:13:24;4.30;;;3.90;;
3407;SDS011;1717;50.240;8.406;2023-03-31T07:15:51;4.90;;;4.20;;
3407;SDS011;1717;50.240;8.406;2023-03-31T07:18:19;5.10;;;4.13;;
3407;SDS011;1717;50.240;8.406;2023-03-31T07:20:50;4.40;;;3.47;;
3407;SDS011;1717;50.240;8.406;2023-03-31T07:23:17;4.80;;;3.47;;
3407;SDS011;1717;50.240;8.406;2023-03-31T07:25:45;3.83;;;2.73;;
3407;SDS011;1717;50.240;8.406;2023-03-31T07:28:14;7.20;;;3.40;;
3407;SDS011;1717;50.240;8.406;2023-03-31T07:30:41;4.30;;;2.77;;
3407;SDS011;1717;50.240;8.406;2023-03-31T07:33:08;4.13;;;2.83;;
3407;SDS011;1717;50.240;8.406;2023-03-31T07:35:39;3.10;;;2.80;;
3407;SDS011;1717;50.240;8.406;2023-03-31T07:38:07;5.40;;;3.20;;
3407;SDS011;1717;50.240;8.406;2023-03-31T07:40:34;3.27;;;2.97;;
3407;SDS011;1717;50.240;8.406;2023-03-31T07:43:02;3.23;;;2.20;;
3407;SDS011;1717;50.240;8.406;2023-03-31T07:45:30;2.80;;;2.33;;
3407;SDS011;1717;50.240;8.406;2023-03-31T07:47:58;3.10;;;2.57;;
3407;SDS011;1717;50.240;8.406;2023-03-31T07:50:25;2.63;;;2.40;;
3407;SDS011;1717;50.240;8.406;2023-03-31T07:52:52;1.83;;;1.70;;
3407;SDS011;1717;50.240;8.406;2023-03-31T07:55:19;2.40;;;2.17;;
3407;SDS011;1717;50.240;8.406;2023-03-31T07:57:48;2.83;;;2.27;;
3407;SDS011;1717;50.240;8.406;2023-03-31T08:00:15;2.37;;;2.07;;
3407;SDS011;1717;50.240;8.406;2023-03-31T08:02:45;3.00;;;2.13;;
3407;SDS011;1717;50.240;8.406;2023-03-31T08:05:12;1.93;;;1.83;;
3407;SDS011;1717;50.240;8.406;2023-03-31T08:07:42;2.23;;;1.60;;
3407;SDS011;1717;50.240;8.406;2023-03-31T08:10:11;1.80;;;1.70;;
3407;SDS011;1717;50.240;8.406;2023-03-31T08:12:40;1.70;;;1.37;;
3407;SDS011;1717;50.240;8.406;2023-03-31T08:15:07;9.37;;;1.80;;
3407;SDS011;1717;50.240;8.406;2023-03-31T08:17:34;1.03;;;0.87;;
3407;SDS011;1717;50.240;8.406;2023-03-31T08:20:03;1.30;;;1.20;;
3407;SDS011;1717;50.240;8.406;2023-03-31T08:22:32;1.30;;;1.20;;
3407;SDS011;1717;50.240;8.406;2023-03-31T08:24:59;1.17;;;1.07;;
3407;SDS011;1717;50.240;8.406;2023-03-31T08:27:26;2.40;;;1.13;;
3407;SDS011;1717;50.240;8.406;2023-03-31T08:29:53;1.87;;;1.20;;
3407;SDS011;1717;50.240;8.406;2023-03-31T08:32:21;1.53;;;1.43;;
3407;SDS011;1717;50.240;8.406;2023-03-31T08:34:49;1.37;;;0.83;;
3407;SDS011;1717;50.240;8.406;2023-03-31T08:37:18;1.37;;;1.13;;
3407;SDS011;1717;50.240;8.406;2023-03-31T08:39:45;2.00;;;1.17;;
3407;SDS011;1717;50.240;8.406;2023-03-31T08:42:12;5.60;;;1.77;;
3407;SDS011;1717;50.240;8.406;2023-03-31T08:44:43;1.57;;;1.23;;
3407;SDS011;1717;50.240;8.406;2023-03-31T08:47:16;1.53;;;1.43;;
3407;SDS011;1717;50.240;8.406;2023-03-31T08:49:47;2.40;;;1.30;;
3407;SDS011;1717;50.240;8.406;2023-03-31T08:52:20;1.20;;;0.90;;
3407;SDS011;1717;50.240;8.406;2023-03-31T08:54:54;1.50;;;1.40;;
3407;SDS011;1717;50.240;8.406;2023-03-31T08:57:24;1.87;;;1.23;;
3407;SDS011;1717;50.240;8.406;2023-03-31T08:59:53;2.50;;;1.70;;
3407;SDS011;1717;50.240;8.406;2023-03-31T09:02:25;3.97;;;1.87;;
3407;SDS011;1717;50.240;8.406;2023-03-31T09:05:09;5.00;;;2.37;;
3407;SDS011;1717;50.240;8.406;2023-03-31T09:07:51;2.00;;;1.70;;
3407;SDS011;1717;50.240;8.406;2023-03-31T09:10:27;4.70;;;2.03;;
3407;SDS011;1717;50.240;8.406;2023-03-31T09:13:05;4.10;;;1.70;;
3407;SDS011;1717;50.240;8.406;2023-03-31T09:15:44;4.70;;;1.80;;
3407;SDS011;1717;50.240;8.406;2023-03-31T09:18:16;3.67;;;2.47;;
3407;SDS011;1717;50.240;8.406;2023-03-31T09:20:50;5.47;;;2.60;;
3407;SDS011;1717;50.240;8.406;2023-03-31T09:23:23;2.50;;;2.00;;
3407;SDS011;1717;50.240;8.406;2023-03-31T09:25:53;3.37;;;2.60;;
3407;SDS011;1717;50.240;8.406;2023-03-31T09:28:25;4.93;;;2.47;;
3407;SDS011;1717;50.240;8.406;2023-03-31T09:30:59;2.00;;;1.73;;
3407;SDS011;1717;50.240;8.406;2023-03-31T09:33:29;6.07;;;2.50;;
3407;SDS011;1717;50.240;8.406;2023-03-31T09:35:57;8.03;;;2.30;;
3407;SDS011;1717;50.240;8.406;2023-03-31T09:38:25;2.27;;;2.07;;
3407;SDS011;1717;50.240;8.406;2023-03-31T09:40:53;6.53;;;2.60;;
3407;SDS011;1717;50.240;8.406;2023-03-31T09:43:22;10.20;;;3.10;;
3407;SDS011;1717;50.240;8.406;2023-03-31T09:45:51;3.03;;;2.83;;
3407;SDS011;1717;50.240;8.406;2023-03-31T09:48:19;3.90;;;2.10;;
3407;SDS011;1717;50.240;8.406;2023-03-31T09:50:50;7.37;;;2.67;;
3407;SDS011;1717;50.240;8.406;2023-03-31T09:53:24;4.07;;;2.83;;
3407;SDS011;1717;50.240;8.406;2023-03-31T09:55:59;4.40;;;2.40;;
3407;SDS011;1717;50.240;8.406;2023-03-31T09:58:27;6.67;;;2.80;;
3407;SDS011;1717;50.240;8.406;2023-03-31T10:00:55;4.70;;;2.80;;
3407;SDS011;1717;50.240;8.406;2023-03-31T10:03:25;4.93;;;3.20;;
3407;SDS011;1717;50.240;8.406;2023-03-31T10:05:53;6.47;;;3.20;;
3407;SDS011;1717;50.240;8.406;2023-03-31T10:08:28;7.80;;;3.23;;
3407;SDS011;1717;50.240;8.406;2023-03-31T10:10:57;4.00;;;2.73;;
3407;SDS011;1717;50.240;8.406;2023-03-31T10:13:34;3.87;;;2.63;;
3407;SDS011;1717;50.240;8.406;2023-03-31T10:16:09;6.13;;;2.97;;
3407;SDS011;1717;50.240;8.406;2023-03-31T10:18:39;5.13;;;2.63;;
3407;SDS011;1717;50.240;8.406;2023-03-31T10:21:14;8.70;;;3.50;;
3407;SDS011;1717;50.240;8.406;2023-03-31T10:23:48;5.33;;;3.03;;
3407;SDS011;1717;50.240;8.406;2023-03-31T10:26:17;6.80;;;3.07;;
3407;SDS011;1717;50.240;8.406;2023-03-31T10:28:46;4.50;;;2.30;;
3407;SDS011;1717;50.240;8.406;2023-03-31T10:31:16;3.33;;;1.80;;
3407;SDS011;1717;50.240;8.406;2023-03-31T10:33:45;4.63;;;2.50;;
3407;SDS011;1717;50.240;8.406;2023-03-31T10:36:15;3.37;;;2.00;;
3407;SDS011;1717;50.240;8.406;2023-03-31T10:38:49;4.63;;;2.20;;
3407;SDS011;1717;50.240;8.406;2023-03-31T10:41:17;2.57;;;1.40;;
3407;SDS011;1717;50.240;8.406;2023-03-31T10:43:47;2.83;;;1.63;;
3407;SDS011;1717;50.240;8.406;2023-03-31T10:46:17;3.63;;;2.00;;
3407;SDS011;1717;50.240;8.406;2023-03-31T10:48:44;4.10;;;1.60;;
3407;SDS011;1717;50.240;8.406;2023-03-31T10:51:14;3.60;;;1.70;;
3407;SDS011;1717;50.240;8.406;2023-03-31T10:53:43;4.40;;;1.80;;
3407;SDS011;1717;50.240;8.406;2023-03-31T10:56:20;3.33;;;1.77;;
3407;SDS011;1717;50.240;8.406;2023-03-31T10:59:03;4.87;;;2.07;;
3407;SDS011;1717;50.240;8.406;2023-03-31T11:01:47;4.07;;;1.80;;
3407;SDS011;1717;50.240;8.406;2023-03-31T11:07:32;6.40;;;2.07;;
3407;SDS011;1717;50.240;8.406;2023-03-31T11:10:19;3.30;;;1.37;;
3407;SDS011;1717;50.240;8.406;2023-03-31T11:12:57;10.40;;;4.13;;
3407;SDS011;1717;50.240;8.406;2023-03-31T11:15:30;4.20;;;1.70;;
3407;SDS011;1717;50.240;8.406;2023-03-31T11:18:05;5.03;;;1.87;;
3407;SDS011;1717;50.240;8.406;2023-03-31T11:20:48;4.20;;;1.53;;
3407;SDS011;1717;50.240;8.406;2023-03-31T11:23:20;6.50;;;3.63;;
3407;SDS011;1717;50.240;8.406;2023-03-31T11:25:58;4.47;;;2.37;;
3407;SDS011;1717;50.240;8.406;2023-03-31T11:28:37;13.93;;;4.80;;
3407;SDS011;1717;50.240;8.406;2023-03-31T11:34:08;11.50;;;5.07;;
3407;SDS011;1717;50.240;8.406;2023-03-31T11:36:49;20.13;;;8.37;;
3407;SDS011;1717;50.240;8.406;2023-03-31T11:39:36;25.33;;;9.70;;
3407;SDS011;1717;50.240;8.406;2023-03-31T11:42:12;17.47;;;7.10;;
3407;SDS011;1717;50.240;8.406;2023-03-31T11:44:44;13.80;;;5.90;;
3407;SDS011;1717;50.240;8.406;2023-03-31T11:47:18;13.60;;;7.33;;
3407;SDS011;1717;50.240;8.406;2023-03-31T11:49:49;16.20;;;8.27;;
3407;SDS011;1717;50.240;8.406;2023-03-31T11:52:21;11.90;;;6.43;;
3407;SDS011;1717;50.240;8.406;2023-03-31T11:54:53;16.67;;;5.27;;
3407;SDS011;1717;50.240;8.406;2023-03-31T11:57:24;9.70;;;4.83;;
3407;SDS011;1717;50.240;8.406;2023-03-31T11:59:57;11.00;;;4.30;;
3407;SDS011;1717;50.240;8.406;2023-03-31T12:02:35;10.60;;;3.70;;
3407;SDS011;1717;50.240;8.406;2023-03-31T12:05:06;14.80;;;3.60;;
3407;SDS011;1717;50.240;8.406;2023-03-31T12:07:38;6.90;;;3.00;;
3407;SDS011;1717;50.240;8.406;2023-03-31T12:10:14;9.40;;;3.50;;
3407;SDS011;1717;50.240;8.406;2023-03-31T12:12:46;6.70;;;2.83;;
3407;SDS011;1717;50.240;8.406;2023-03-31T12:15:20;11.33;;;3.37;;
3407;SDS011;1717;50.240;8.406;2023-03-31T12:17:53;5.00;;;2.73;;
3407;SDS011;1717;50.240;8.406;2023-03-31T12:20:29;6.50;;;3.17;;
3407;SDS011;1717;50.240;8.406;2023-03-31T12:23:01;5.90;;;2.30;;
3407;SDS011;1717;50.240;8.406;2023-03-31T12:25:35;5.77;;;2.30;;
3407;SDS011;1717;50.240;8.406;2023-03-31T12:28:09;5.57;;;2.40;;
3407;SDS011;1717;50.240;8.406;2023-03-31T12:30:39;7.30;;;3.47;;
3407;SDS011;1717;50.240;8.406;2023-03-31T12:33:11;6.10;;;2.77;;
3407;SDS011;1717;50.240;8.406;2023-03-31T12:35:45;6.73;;;2.17;;
3407;SDS011;1717;50.240;8.406;2023-03-31T12:38:28;6.60;;;2.77;;
3407;SDS011;1717;50.240;8.406;2023-03-31T12:41:09;9.30;;;3.20;;
3407;SDS011;1717;50.240;8.406;2023-03-31T12:43:47;8.63;;;3.97;;
3407;SDS011;1717;50.240;8.406;2023-03-31T12:46:46;7.80;;;2.73;;
3407;SDS011;1717;50.240;8.406;2023-03-31T12:49:38;4.73;;;1.97;;
3407;SDS011;1717;50.240;8.406;2023-03-31T12:52:16;7.83;;;2.33;;
3407;SDS011;1717;50.240;8.406;2023-03-31T12:54:56;7.30;;;1.93;;
3407;SDS011;1717;50.240;8.406;2023-03-31T12:57:45;7.57;;;2.37;;
3407;SDS011;1717;50.240;8.406;2023-03-31T13:00:22;8.10;;;2.70;;
3407;SDS011;1717;50.240;8.406;2023-03-31T13:05:53;4.10;;;1.57;;
3407;SDS011;1717;50.240;8.406;2023-03-31T13:11:16;5.80;;;2.20;;
3407;SDS011;1717;50.240;8.406;2023-03-31T13:13:44;14.40;;;2.37;;
3407;SDS011;1717;50.240;8.406;2023-03-31T13:16:18;12.63;;;2.70;;
3407;SDS011;1717;50.240;8.406;2023-03-31T13:18:49;8.30;;;1.77;;
3407;SDS011;1717;50.240;8.406;2023-03-31T13:21:18;11.67;;;2.00;;
3407;SDS011;1717;50.240;8.406;2023-03-31T13:23:46;6.43;;;2.17;;
3407;SDS011;1717;50.240;8.406;2023-03-31T13:29:22;5.53;;;2.00;;
3407;SDS011;1717;50.240;8.406;2023-03-31T13:32:06;6.00;;;1.90;;
3407;SDS011;1717;50.240;8.406;2023-03-31T13:34:45;7.10;;;2.60;;
3407;SDS011;1717;50.240;8.406;2023-03-31T13:37:21;6.20;;;2.00;;
3407;SDS011;1717;50.240;8.406;2023-03-31T13:40:07;5.60;;;1.60;;
3407;SDS011;1717;50.240;8.406;2023-03-31T13:42:57;5.40;;;1.50;;
3407;SDS011;1717;50.240;8.406;2023-03-31T13:45:50;6.60;;;2.00;;
3407;SDS011;1717;50.240;8.406;2023-03-31T13:48:29;5.80;;;1.60;;
3407;SDS011;1717;50.240;8.406;2023-03-31T13:51:14;8.43;;;1.93;;
3407;SDS011;1717;50.240;8.406;2023-03-31T13:53:56;6.30;;;2.30;;
3407;SDS011;1717;50.240;8.406;2023-03-31T13:56:51;6.60;;;2.30;;
3407;SDS011;1717;50.240;8.406;2023-03-31T13:59:43;6.60;;;2.17;;
3407;SDS011;1717;50.240;8.406;2023-03-31T14:02:45;10.43;;;2.53;;
3407;SDS011;1717;50.240;8.406;2023-03-31T14:05:32;3.47;;;1.47;;
3407;SDS011;1717;50.240;8.406;2023-03-31T14:08:04;4.97;;;2.40;;
3407;SDS011;1717;50.240;8.406;2023-03-31T14:10:38;8.37;;;1.90;;
3407;SDS011;1717;50.240;8.406;2023-03-31T14:13:08;4.87;;;2.00;;
3407;SDS011;1717;50.240;8.406;2023-03-31T14:15:36;7.63;;;2.10;;
3407;SDS011;1717;50.240;8.406;2023-03-31T14:18:09;5.27;;;2.40;;
3407;SDS011;1717;50.240;8.406;2023-03-31T14:20:42;4.77;;;1.30;;
3407;SDS011;1717;50.240;8.406;2023-03-31T14:23:18;3.97;;;1.70;;
3407;SDS011;1717;50.240;8.406;2023-03-31T14:25:55;5.20;;;1.47;;
3407;SDS011;1717;50.240;8.406;2023-03-31T14:28:36;6.80;;;2.57;;
3407;SDS011;1717;50.240;8.406;2023-03-31T14:31:18;8.13;;;1.77;;
3407;SDS011;1717;50.240;8.406;2023-03-31T14:34:03;7.70;;;1.90;;
3407;SDS011;1717;50.240;8.406;2023-03-31T14:36:50;5.20;;;2.13;;
3407;SDS011;1717;50.240;8.406;2023-03-31T14:39:23;5.10;;;1.27;;
3407;SDS011;1717;50.240;8.406;2023-03-31T14:41:57;7.10;;;1.83;;
3407;SDS011;1717;50.240;8.406;2023-03-31T14:44:27;3.73;;;1.30;;
3407;SDS011;1717;50.240;8.406;2023-03-31T14:46:55;7.10;;;1.47;;
3407;SDS011;1717;50.240;8.406;2023-03-31T14:49:24;7.83;;;2.33;;
3407;SDS011;1717;50.240;8.406;2023-03-31T14:51:53;6.33;;;1.57;;
3407;SDS011;1717;50.240;8.406;2023-03-31T14:54:24;2.70;;;1.30;;
3407;SDS011;1717;50.240;8.406;2023-03-31T14:56:51;2.77;;;1.00;;
3407;SDS011;1717;50.240;8.406;2023-03-31T14:59:23;3.10;;;1.20;;
3407;SDS011;1717;50.240;8.406;2023-03-31T15:01:53;2.80;;;1.30;;
3407;SDS011;1717;50.240;8.406;2023-03-31T15:04:24;4.07;;;1.73;;
3407;SDS011;1717;50.240;8.406;2023-03-31T15:06:54;4.50;;;1.20;;
3407;SDS011;1717;50.240;8.406;2023-03-31T15:09:23;3.30;;;1.43;;
3407;SDS011;1717;50.240;8.406;2023-03-31T15:11:53;4.43;;;1.80;;
3407;SDS011;1717;50.240;8.406;2023-03-31T15:14:23;4.77;;;1.17;;
3407;SDS011;1717;50.240;8.406;2023-03-31T15:16:55;3.30;;;2.07;;
3407;SDS011;1717;50.240;8.406;2023-03-31T15:19:23;5.40;;;1.50;;
3407;SDS011;1717;50.240;8.406;2023-03-31T15:21:53;4.43;;;1.97;;
3407;SDS011;1717;50.240;8.406;2023-03-31T15:24:21;7.40;;;1.40;;
3407;SDS011;1717;50.240;8.406;2023-03-31T15:26:49;1.87;;;0.80;;
3407;SDS011;1717;50.240;8.406;2023-03-31T15:29:24;3.17;;;0.87;;
3407;SDS011;1717;50.240;8.406;2023-03-31T15:31:57;3.67;;;1.20;;
3407;SDS011;1717;50.240;8.406;2023-03-31T15:34:25;2.50;;;1.00;;
3407;SDS011;1717;50.240;8.406;2023-03-31T15:36:57;2.77;;;1.10;;
3407;SDS011;1717;50.240;8.406;2023-03-31T15:39:26;2.30;;;1.00;;
3407;SDS011;1717;50.240;8.406;2023-03-31T15:41:56;9.90;;;1.43;;
3407;SDS011;1717;50.240;8.406;2023-03-31T15:44:28;3.50;;;1.07;;
3407;SDS011;1717;50.240;8.406;2023-03-31T15:47:01;2.73;;;1.37;;
3407;SDS011;1717;50.240;8.406;2023-03-31T15:49:33;1.50;;;0.87;;
3407;SDS011;1717;50.240;8.406;2023-03-31T15:52:00;4.37;;;0.90;;
3407;SDS011;1717;50.240;8.406;2023-03-31T15:54:32;2.03;;;0.90;;
3407;SDS011;1717;50.240;8.406;2023-03-31T15:57:02;1.87;;;1.40;;
3407;SDS011;1717;50.240;8.406;2023-03-31T15:59:42;2.87;;;0.83;;
3407;SDS011;1717;50.240;8.406;2023-03-31T16:02:13;2.43;;;1.03;;
3407;SDS011;1717;50.240;8.406;2023-03-31T16:04:42;0.90;;;0.70;;